Logan, Ohio
Current Conditions -  °F | °C
As of 4:53 AM on Saturday 29 Nov 2014 (Local Time) from KLHQ Reporting Station
Clear Clear  
Wind Chill: 22°   Ceiling: Unl
Heat Index: 30°   Visibility: 10mi
Dew Point: 20°   Wind: 9mph
Humidity: 66%   Direction: 150°SSE
Pressure: 30.09"   Gusts: NA
Location:  39.54°N, 82.41°W
Report Text: KLHQ 290953Z AUTO 15008KT 10SM CLR M01/M07 A3009 RMK AO2 SLP196 T10111067
Loading
Personal Weather Stations






























Interactive Weather Map New forecast layout! Learn more

10-Day Weather Forecast

Advertisements
Track Severe Weather on mobile